createdAt,value
2019-06-15T00:00:00.879Z,17.2
2019-06-15T00:05:00.855Z,17.2
2019-06-15T00:10:00.876Z,16.9
2019-06-15T00:15:00.875Z,16.8
2019-06-15T00:25:00.965Z,16.5
2019-06-15T00:30:00.961Z,16.5
2019-06-15T00:35:00.865Z,16.1
2019-06-15T00:40:05.914Z,16.6
2019-06-15T00:45:00.896Z,16.3
2019-06-15T00:50:00.950Z,16.8
2019-06-15T00:55:00.908Z,16.8
2019-06-15T01:00:00.950Z,17.0
2019-06-15T01:05:00.889Z,16.1
2019-06-15T01:10:00.897Z,16.1
2019-06-15T01:15:00.917Z,15.8
2019-06-15T01:20:00.977Z,15.7
2019-06-15T01:25:11.437Z,15.4
2019-06-15T01:30:00.926Z,15.8
2019-06-15T01:35:00.919Z,16.0
2019-06-15T01:40:01.040Z,15.7
2019-06-15T01:45:00.918Z,15.4
2019-06-15T01:50:00.993Z,15.4
2019-06-15T01:55:00.918Z,15.0
2019-06-15T02:00:01.054Z,14.5
2019-06-15T02:05:00.925Z,14.4
2019-06-15T02:10:00.942Z,14.3
2019-06-15T02:15:00.916Z,14.0
2019-06-15T02:25:00.963Z,13.8
2019-06-15T02:30:01.035Z,13.8
2019-06-15T02:35:00.901Z,13.8
2019-06-15T02:40:00.929Z,13.6
2019-06-15T02:45:00.879Z,13.9
2019-06-15T02:50:00.904Z,14.0
2019-06-15T02:55:00.884Z,13.8
2019-06-15T03:00:06.188Z,13.8
2019-06-15T03:05:00.893Z,14.0
2019-06-15T03:10:00.982Z,13.8
2019-06-15T03:15:00.893Z,13.8
2019-06-15T03:25:01.059Z,14.1
2019-06-15T03:30:01.001Z,14.5
2019-06-15T03:35:00.918Z,14.7
2019-06-15T03:40:01.077Z,14.9
2019-06-15T03:45:00.943Z,15.2
2019-06-15T03:50:01.143Z,15.0
2019-06-15T03:55:00.949Z,15.0
2019-06-15T04:00:01.281Z,14.8
2019-06-15T04:05:06.029Z,14.6
2019-06-15T04:10:01.018Z,15.0
2019-06-15T04:15:01.087Z,15.2
2019-06-15T04:20:01.088Z,15.1
2019-06-15T04:25:01.094Z,15.2
2019-06-15T04:30:00.964Z,15.4
2019-06-15T04:35:00.973Z,14.9
2019-06-15T04:40:01.033Z,15.1
2019-06-15T04:45:00.962Z,15.3
2019-06-15T04:50:02.127Z,15.4
2019-06-15T04:55:00.969Z,15.2
2019-06-15T05:00:00.991Z,15.1
2019-06-15T05:05:00.982Z,14.9
2019-06-15T05:10:02.077Z,14.5
2019-06-15T05:15:02.020Z,14.6
2019-06-15T05:20:02.219Z,14.7
2019-06-15T05:25:01.022Z,14.7
2019-06-15T05:30:01.063Z,14.6
2019-06-15T05:35:00.969Z,14.6
2019-06-15T05:40:06.079Z,14.3
2019-06-15T05:45:00.971Z,14.6
2019-06-15T05:50:01.136Z,14.9
2019-06-15T05:55:06.020Z,15.1
2019-06-15T06:00:01.107Z,14.5
2019-06-15T06:10:01.428Z,14.8
2019-06-15T06:15:01.017Z,14.8
2019-06-15T06:20:01.045Z,15.0
2019-06-15T06:25:01.027Z,15.6
2019-06-15T06:30:01.032Z,16.0
2019-06-15T06:35:01.029Z,16.2
2019-06-15T06:40:01.100Z,16.4
2019-06-15T06:45:01.050Z,16.5
2019-06-15T06:50:01.288Z,16.8
2019-06-15T06:55:01.038Z,16.8
2019-06-15T07:00:01.119Z,17.1
2019-06-15T07:05:01.056Z,17.3
2019-06-15T07:10:01.027Z,17.7
2019-06-15T07:15:06.070Z,18.4
2019-06-15T07:20:01.256Z,18.5
2019-06-15T07:25:01.133Z,18.8
2019-06-15T07:30:01.060Z,19.0
2019-06-15T07:35:01.034Z,19.2
2019-06-15T07:40:01.135Z,19.4
2019-06-15T07:45:01.076Z,19.8
2019-06-15T07:50:01.206Z,19.8
2019-06-15T07:55:01.211Z,20.0
2019-06-15T08:00:01.087Z,20.2
2019-06-15T08:05:01.088Z,20.4
2019-06-15T08:10:01.266Z,20.6
2019-06-15T08:15:01.058Z,21.0
2019-06-15T08:20:01.210Z,21.4
2019-06-15T08:25:01.140Z,21.8
2019-06-15T08:30:01.368Z,21.8
2019-06-15T08:35:01.106Z,22.0
2019-06-15T08:40:01.235Z,22.0
2019-06-15T08:45:01.106Z,22.1
2019-06-15T08:50:01.193Z,22.0
2019-06-15T08:55:01.300Z,22.1
2019-06-15T09:00:01.118Z,21.8
2019-06-15T09:05:01.094Z,21.0
2019-06-15T09:10:01.257Z,19.9
2019-06-15T09:15:01.196Z,18.9
2019-06-15T09:20:01.347Z,17.9
2019-06-15T09:25:01.133Z,16.4
2019-06-15T09:30:01.198Z,15.8
2019-06-15T09:35:01.132Z,15.4
2019-06-15T09:40:01.418Z,14.9
2019-06-15T09:45:01.145Z,14.6
2019-06-15T09:50:01.269Z,15.0
2019-06-15T09:55:01.062Z,15.0
2019-06-15T10:00:01.150Z,15.0
2019-06-15T10:05:01.154Z,15.4
2019-06-15T10:10:01.230Z,15.5
2019-06-15T10:15:01.184Z,15.3
2019-06-15T10:20:02.514Z,15.2
2019-06-15T10:25:01.236Z,14.8
2019-06-15T10:35:01.166Z,13.2
2019-06-15T10:40:06.249Z,13.1
2019-06-15T10:45:01.168Z,12.6
2019-06-15T10:50:01.299Z,12.4
2019-06-15T10:55:01.170Z,11.9
2019-06-15T11:00:01.281Z,11.9
2019-06-15T11:10:01.182Z,11.3
2019-06-15T11:15:01.178Z,11.5
2019-06-15T11:20:01.319Z,11.8
2019-06-15T11:25:01.190Z,11.8
2019-06-15T11:35:01.603Z,12.7
2019-06-15T11:40:01.320Z,12.7
2019-06-15T11:45:01.199Z,13.4
2019-06-15T11:50:01.445Z,13.5
2019-06-15T11:55:01.214Z,13.2
2019-06-15T12:00:01.280Z,12.2
2019-06-15T12:05:01.242Z,11.2
2019-06-15T12:10:06.359Z,10.1
2019-06-15T12:15:01.208Z,9.2
2019-06-15T12:20:01.341Z,9.2
2019-06-15T12:25:01.226Z,9.2
2019-06-15T12:35:01.297Z,9.0
2019-06-15T12:40:01.293Z,9.1
2019-06-15T12:45:01.309Z,8.9
2019-06-15T12:50:01.451Z,8.7
2019-06-15T12:55:01.314Z,8.6
2019-06-15T13:00:01.317Z,8.5
2019-06-15T13:05:01.310Z,8.7
2019-06-15T13:10:01.398Z,8.6
2019-06-15T13:20:01.381Z,8.1
2019-06-15T13:25:01.255Z,8.1
2019-06-15T13:30:01.316Z,7.5
2019-06-15T13:35:01.250Z,7.5
2019-06-15T13:45:01.247Z,7.8
2019-06-15T13:50:01.406Z,7.9
2019-06-15T13:55:01.269Z,8.2
2019-06-15T14:00:01.378Z,7.8
2019-06-15T14:05:01.267Z,8.0
2019-06-15T14:10:01.344Z,8.0
2019-06-15T14:15:01.268Z,7.7
2019-06-15T14:20:01.337Z,7.8
2019-06-15T14:25:01.481Z,8.2
2019-06-15T14:30:01.509Z,8.4
2019-06-15T14:35:01.284Z,8.2
2019-06-15T14:40:01.404Z,8.6
2019-06-15T14:45:01.312Z,8.9
2019-06-15T14:50:01.395Z,8.9
2019-06-15T14:55:01.317Z,9.3
2019-06-15T15:00:09.277Z,9.7
2019-06-15T15:05:01.295Z,9.6
2019-06-15T15:10:01.305Z,9.9
2019-06-15T15:15:01.301Z,9.8
2019-06-15T15:20:12.492Z,9.8
2019-06-15T15:30:01.946Z,9.3
2019-06-15T15:35:01.319Z,9.0
2019-06-15T15:40:01.383Z,9.4
2019-06-15T15:45:01.330Z,9.4
2019-06-15T15:50:01.336Z,10.0
2019-06-15T15:55:01.388Z,10.5
2019-06-15T16:00:01.475Z,11.1
2019-06-15T16:05:01.373Z,11.3
2019-06-15T16:10:01.427Z,11.8
2019-06-15T16:15:01.947Z,11.7
2019-06-15T16:20:01.373Z,12.2
2019-06-15T16:30:01.401Z,12.8
2019-06-15T16:35:01.448Z,12.9
2019-06-15T16:40:01.413Z,13.1
2019-06-15T16:45:02.909Z,13.4
2019-06-15T16:50:01.546Z,13.2
2019-06-15T16:55:01.421Z,13.3
2019-06-15T17:00:01.456Z,13.2
2019-06-15T17:05:01.369Z,14.3
2019-06-15T17:10:01.505Z,15.0
2019-06-15T17:15:01.386Z,16.2
2019-06-15T17:20:01.494Z,16.4
2019-06-15T17:25:01.342Z,16.7
2019-06-15T17:30:01.439Z,16.0
2019-06-15T17:35:01.446Z,14.6
2019-06-15T17:40:01.450Z,12.4
2019-06-15T17:45:01.444Z,10.7
2019-06-15T17:50:01.574Z,9.3
2019-06-15T17:55:01.471Z,8.2
2019-06-15T18:00:01.456Z,7.7
2019-06-15T18:05:01.389Z,8.1
2019-06-15T18:10:01.520Z,8.8
2019-06-15T18:15:02.418Z,9.2
2019-06-15T18:20:01.643Z,10.1
2019-06-15T18:25:01.581Z,10.9
2019-06-15T18:30:01.578Z,11.1
2019-06-15T18:35:01.457Z,10.8
2019-06-15T18:40:01.461Z,10.5
2019-06-15T18:45:01.565Z,9.6
2019-06-15T18:50:01.462Z,8.8
2019-06-15T18:56:01.531Z,8.2
2019-06-15T19:01:01.518Z,8.2
2019-06-15T19:11:01.560Z,8.2
2019-06-15T19:16:01.396Z,8.2
2019-06-15T19:21:01.548Z,8.2
2019-06-15T19:27:01.385Z,8.3
2019-06-15T19:32:01.444Z,8.3
2019-06-15T19:37:01.951Z,8.7
2019-06-15T19:42:01.779Z,9.1
2019-06-15T19:47:01.389Z,9.7
2019-06-15T19:52:01.551Z,10.3
2019-06-15T19:57:01.386Z,11.2
2019-06-15T20:02:01.451Z,11.7
2019-06-15T20:07:01.390Z,12.5
2019-06-15T20:12:01.460Z,13.5
2019-06-15T20:17:01.457Z,14.2
2019-06-15T20:22:01.527Z,14.7
2019-06-15T20:27:01.401Z,15.1
2019-06-15T20:32:01.510Z,14.8
2019-06-15T20:37:01.381Z,14.0
2019-06-15T20:42:01.478Z,13.7
2019-06-15T20:47:01.436Z,13.5
2019-06-15T20:52:01.650Z,12.7
2019-06-15T20:57:01.361Z,12.2
2019-06-15T21:02:01.702Z,11.7
2019-06-15T21:07:01.457Z,10.6
2019-06-15T21:12:01.507Z,9.0
2019-06-15T21:17:02.545Z,8.0
2019-06-15T21:22:01.402Z,7.1
2019-06-15T21:27:01.392Z,6.1
2019-06-15T21:32:01.581Z,5.3
2019-06-15T21:37:01.395Z,4.8
2019-06-15T21:42:01.511Z,4.4
2019-06-15T21:47:01.566Z,4.2
2019-06-15T21:52:01.519Z,4.0
2019-06-15T21:57:01.396Z,4.0
2019-06-15T22:02:01.613Z,3.8
2019-06-15T22:07:01.594Z,3.8
2019-06-15T22:12:01.390Z,3.9
2019-06-15T22:17:01.392Z,3.9
2019-06-15T22:22:01.442Z,4.2
2019-06-15T22:27:01.870Z,4.2
2019-06-15T22:32:01.467Z,4.4
2019-06-15T22:37:01.396Z,4.4
2019-06-15T22:42:01.510Z,4.6
2019-06-15T22:47:01.370Z,4.6
2019-06-15T22:52:01.512Z,4.9
2019-06-15T22:57:01.349Z,5.1
2019-06-15T23:07:01.509Z,6.1
2019-06-15T23:12:01.454Z,6.7
2019-06-15T23:17:01.435Z,7.0
2019-06-15T23:22:01.529Z,7.2
2019-06-15T23:32:01.448Z,7.7
2019-06-15T23:37:01.378Z,8.0
2019-06-15T23:42:01.451Z,8.4
2019-06-15T23:52:01.422Z,8.9
2019-06-15T23:57:01.396Z,8.9
